sensor_id;sensor_type;location;lat;lon;timestamp;P1;durP1;ratioP1;P2;durP2;ratioP2
64615;SDS011;51027;42.162;24.754;2023-02-24T00:01:10;19.67;;;7.78;;
64615;SDS011;51027;42.162;24.754;2023-02-24T00:03:37;25.80;;;9.77;;
64615;SDS011;51027;42.162;24.754;2023-02-24T00:06:04;20.40;;;8.13;;
64615;SDS011;51027;42.162;24.754;2023-02-24T00:08:36;19.30;;;7.00;;
64615;SDS011;51027;42.162;24.754;2023-02-24T00:11:20;21.83;;;7.30;;
64615;SDS011;51027;42.162;24.754;2023-02-24T00:13:46;22.05;;;7.53;;
64615;SDS011;51027;42.162;24.754;2023-02-24T00:16:15;23.67;;;8.18;;
64615;SDS011;51027;42.162;24.754;2023-02-24T00:18:42;21.80;;;7.57;;
64615;SDS011;51027;42.162;24.754;2023-02-24T00:21:09;19.80;;;6.82;;
64615;SDS011;51027;42.162;24.754;2023-02-24T00:23:38;21.13;;;6.80;;
64615;SDS011;51027;42.162;24.754;2023-02-24T00:26:04;20.33;;;7.25;;
64615;SDS011;51027;42.162;24.754;2023-02-24T00:28:32;20.50;;;7.35;;
64615;SDS011;51027;42.162;24.754;2023-02-24T00:31:08;17.02;;;6.30;;
64615;SDS011;51027;42.162;24.754;2023-02-24T00:36:11;20.88;;;7.03;;
64615;SDS011;51027;42.162;24.754;2023-02-24T00:38:48;17.58;;;5.88;;
64615;SDS011;51027;42.162;24.754;2023-02-24T00:41:18;22.30;;;7.03;;
64615;SDS011;51027;42.162;24.754;2023-02-24T00:43:46;16.83;;;6.10;;
64615;SDS011;51027;42.162;24.754;2023-02-24T00:46:19;18.73;;;7.05;;
64615;SDS011;51027;42.162;24.754;2023-02-24T00:48:46;16.92;;;6.07;;
64615;SDS011;51027;42.162;24.754;2023-02-24T00:51:17;22.15;;;7.60;;
64615;SDS011;51027;42.162;24.754;2023-02-24T00:53:50;19.52;;;6.35;;
64615;SDS011;51027;42.162;24.754;2023-02-24T00:56:28;23.33;;;7.07;;
64615;SDS011;51027;42.162;24.754;2023-02-24T00:58:54;20.15;;;6.43;;
64615;SDS011;51027;42.162;24.754;2023-02-24T01:01:22;19.17;;;6.30;;
64615;SDS011;51027;42.162;24.754;2023-02-24T01:03:50;19.38;;;6.50;;
64615;SDS011;51027;42.162;24.754;2023-02-24T01:06:18;12.18;;;3.67;;
64615;SDS011;51027;42.162;24.754;2023-02-24T01:08:45;16.25;;;5.28;;
64615;SDS011;51027;42.162;24.754;2023-02-24T01:11:16;17.70;;;5.03;;
64615;SDS011;51027;42.162;24.754;2023-02-24T01:14:06;17.23;;;6.28;;
64615;SDS011;51027;42.162;24.754;2023-02-24T01:16:32;19.63;;;6.13;;
64615;SDS011;51027;42.162;24.754;2023-02-24T01:18:58;18.05;;;6.40;;
64615;SDS011;51027;42.162;24.754;2023-02-24T01:21:24;17.05;;;6.20;;
64615;SDS011;51027;42.162;24.754;2023-02-24T01:23:50;19.05;;;6.07;;
64615;SDS011;51027;42.162;24.754;2023-02-24T01:26:16;12.45;;;4.03;;
64615;SDS011;51027;42.162;24.754;2023-02-24T01:28:43;18.35;;;6.10;;
64615;SDS011;51027;42.162;24.754;2023-02-24T01:31:13;22.95;;;6.95;;
64615;SDS011;51027;42.162;24.754;2023-02-24T01:33:42;19.70;;;6.47;;
64615;SDS011;51027;42.162;24.754;2023-02-24T01:36:20;17.63;;;5.85;;
64615;SDS011;51027;42.162;24.754;2023-02-24T01:38:47;17.23;;;5.75;;
64615;SDS011;51027;42.162;24.754;2023-02-24T01:41:14;18.23;;;6.32;;
64615;SDS011;51027;42.162;24.754;2023-02-24T01:46:34;20.35;;;6.32;;
64615;SDS011;51027;42.162;24.754;2023-02-24T01:49:23;18.42;;;6.32;;
64615;SDS011;51027;42.162;24.754;2023-02-24T01:52:03;12.80;;;4.32;;
64615;SDS011;51027;42.162;24.754;2023-02-24T01:54:43;20.63;;;5.03;;
64615;SDS011;51027;42.162;24.754;2023-02-24T01:57:16;19.40;;;5.45;;
64615;SDS011;51027;42.162;24.754;2023-02-24T01:59:47;18.77;;;5.68;;
64615;SDS011;51027;42.162;24.754;2023-02-24T02:02:16;21.42;;;6.72;;
64615;SDS011;51027;42.162;24.754;2023-02-24T02:07:27;18.98;;;6.38;;
64615;SDS011;51027;42.162;24.754;2023-02-24T02:09:54;19.65;;;6.22;;
64615;SDS011;51027;42.162;24.754;2023-02-24T02:12:24;23.10;;;5.15;;
64615;SDS011;51027;42.162;24.754;2023-02-24T02:14:52;19.80;;;6.47;;
64615;SDS011;51027;42.162;24.754;2023-02-24T02:25:23;17.75;;;5.80;;
64615;SDS011;51027;42.162;24.754;2023-02-24T02:36:57;19.58;;;5.65;;
64615;SDS011;51027;42.162;24.754;2023-02-24T02:55:27;23.15;;;5.93;;
64615;SDS011;51027;42.162;24.754;2023-02-24T02:58:01;16.88;;;5.25;;
64615;SDS011;51027;42.162;24.754;2023-02-24T03:00:33;22.98;;;5.90;;
64615;SDS011;51027;42.162;24.754;2023-02-24T03:03:10;19.27;;;5.80;;
64615;SDS011;51027;42.162;24.754;2023-02-24T03:05:41;24.42;;;5.78;;
64615;SDS011;51027;42.162;24.754;2023-02-24T03:08:12;18.38;;;5.72;;
64615;SDS011;51027;42.162;24.754;2023-02-24T03:10:42;21.08;;;6.35;;
64615;SDS011;51027;42.162;24.754;2023-02-24T03:13:15;21.30;;;5.63;;
64615;SDS011;51027;42.162;24.754;2023-02-24T03:15:46;22.92;;;6.03;;
64615;SDS011;51027;42.162;24.754;2023-02-24T03:18:15;19.88;;;5.55;;
64615;SDS011;51027;42.162;24.754;2023-02-24T03:20:50;22.27;;;6.53;;
64615;SDS011;51027;42.162;24.754;2023-02-24T03:23:22;21.00;;;5.72;;
64615;SDS011;51027;42.162;24.754;2023-02-24T03:28:35;18.70;;;5.43;;
64615;SDS011;51027;42.162;24.754;2023-02-24T03:31:08;19.77;;;5.47;;
64615;SDS011;51027;42.162;24.754;2023-02-24T03:33:39;18.38;;;5.00;;
64615;SDS011;51027;42.162;24.754;2023-02-24T03:36:11;21.60;;;5.20;;
64615;SDS011;51027;42.162;24.754;2023-02-24T03:38:39;21.15;;;6.28;;
64615;SDS011;51027;42.162;24.754;2023-02-24T03:41:07;20.02;;;5.53;;
64615;SDS011;51027;42.162;24.754;2023-02-24T03:43:35;20.95;;;6.03;;
64615;SDS011;51027;42.162;24.754;2023-02-24T03:46:14;18.20;;;5.50;;
64615;SDS011;51027;42.162;24.754;2023-02-24T03:48:45;17.55;;;5.57;;
64615;SDS011;51027;42.162;24.754;2023-02-24T03:51:15;21.73;;;5.47;;
64615;SDS011;51027;42.162;24.754;2023-02-24T04:02:21;17.17;;;4.50;;
64615;SDS011;51027;42.162;24.754;2023-02-24T04:10:12;15.95;;;5.72;;
64615;SDS011;51027;42.162;24.754;2023-02-24T04:13:03;12.75;;;4.40;;
64615;SDS011;51027;42.162;24.754;2023-02-24T04:15:53;18.85;;;5.40;;
64615;SDS011;51027;42.162;24.754;2023-02-24T04:18:26;17.90;;;4.88;;
64615;SDS011;51027;42.162;24.754;2023-02-24T04:20:55;22.42;;;5.30;;
64615;SDS011;51027;42.162;24.754;2023-02-24T04:23:35;19.00;;;5.20;;
64615;SDS011;51027;42.162;24.754;2023-02-24T04:26:04;18.00;;;5.30;;
64615;SDS011;51027;42.162;24.754;2023-02-24T04:28:32;16.67;;;4.93;;
64615;SDS011;51027;42.162;24.754;2023-02-24T04:31:02;18.50;;;5.22;;
64615;SDS011;51027;42.162;24.754;2023-02-24T04:33:31;16.27;;;4.53;;
64615;SDS011;51027;42.162;24.754;2023-02-24T04:35:57;19.98;;;5.65;;
64615;SDS011;51027;42.162;24.754;2023-02-24T04:38:23;17.48;;;5.68;;
64615;SDS011;51027;42.162;24.754;2023-02-24T04:40:49;19.90;;;5.57;;
64615;SDS011;51027;42.162;24.754;2023-02-24T04:43:15;17.40;;;4.90;;
64615;SDS011;51027;42.162;24.754;2023-02-24T04:45:41;18.52;;;5.82;;
64615;SDS011;51027;42.162;24.754;2023-02-24T04:48:08;20.33;;;5.80;;
64615;SDS011;51027;42.162;24.754;2023-02-24T04:50:39;18.75;;;5.70;;
64615;SDS011;51027;42.162;24.754;2023-02-24T04:53:07;21.70;;;5.10;;
64615;SDS011;51027;42.162;24.754;2023-02-24T04:55:44;22.42;;;6.65;;
64615;SDS011;51027;42.162;24.754;2023-02-24T04:58:18;19.45;;;5.57;;
64615;SDS011;51027;42.162;24.754;2023-02-24T05:00:48;22.88;;;7.05;;
64615;SDS011;51027;42.162;24.754;2023-02-24T05:03:25;17.40;;;5.28;;
64615;SDS011;51027;42.162;24.754;2023-02-24T05:05:57;19.17;;;5.30;;
64615;SDS011;51027;42.162;24.754;2023-02-24T05:08:27;16.05;;;5.85;;
64615;SDS011;51027;42.162;24.754;2023-02-24T05:10:54;19.02;;;5.45;;
64615;SDS011;51027;42.162;24.754;2023-02-24T05:13:25;18.88;;;6.15;;
64615;SDS011;51027;42.162;24.754;2023-02-24T05:15:56;21.58;;;6.28;;
64615;SDS011;51027;42.162;24.754;2023-02-24T05:18:24;23.52;;;6.72;;
64615;SDS011;51027;42.162;24.754;2023-02-24T05:20:54;23.13;;;6.97;;
64615;SDS011;51027;42.162;24.754;2023-02-24T05:23:43;22.70;;;7.75;;
64615;SDS011;51027;42.162;24.754;2023-02-24T05:26:11;21.75;;;6.55;;
64615;SDS011;51027;42.162;24.754;2023-02-24T05:28:40;23.70;;;6.32;;
64615;SDS011;51027;42.162;24.754;2023-02-24T05:31:08;24.25;;;6.55;;
64615;SDS011;51027;42.162;24.754;2023-02-24T05:33:41;23.83;;;7.90;;
64615;SDS011;51027;42.162;24.754;2023-02-24T05:36:13;21.27;;;6.97;;
64615;SDS011;51027;42.162;24.754;2023-02-24T05:38:44;21.63;;;6.68;;
64615;SDS011;51027;42.162;24.754;2023-02-24T05:41:19;20.60;;;6.10;;
64615;SDS011;51027;42.162;24.754;2023-02-24T05:43:50;22.40;;;7.20;;
64615;SDS011;51027;42.162;24.754;2023-02-24T05:46:22;26.63;;;7.80;;
64615;SDS011;51027;42.162;24.754;2023-02-24T05:49:37;21.48;;;6.75;;
64615;SDS011;51027;42.162;24.754;2023-02-24T05:51:47;21.73;;;6.90;;
64615;SDS011;51027;42.162;24.754;2023-02-24T05:54:24;24.13;;;6.90;;
64615;SDS011;51027;42.162;24.754;2023-02-24T05:56:53;19.08;;;6.18;;
64615;SDS011;51027;42.162;24.754;2023-02-24T05:59:24;23.05;;;6.32;;
64615;SDS011;51027;42.162;24.754;2023-02-24T06:01:51;26.30;;;7.72;;
64615;SDS011;51027;42.162;24.754;2023-02-24T06:04:17;14.95;;;5.78;;
64615;SDS011;51027;42.162;24.754;2023-02-24T06:07:03;21.13;;;6.47;;
64615;SDS011;51027;42.162;24.754;2023-02-24T06:09:50;17.70;;;5.63;;
64615;SDS011;51027;42.162;24.754;2023-02-24T06:12:19;27.52;;;7.68;;
64615;SDS011;51027;42.162;24.754;2023-02-24T06:14:46;20.00;;;6.00;;
64615;SDS011;51027;42.162;24.754;2023-02-24T06:17:12;18.67;;;5.90;;
64615;SDS011;51027;42.162;24.754;2023-02-24T06:19:41;21.00;;;7.57;;
64615;SDS011;51027;42.162;24.754;2023-02-24T06:22:08;22.35;;;7.25;;
64615;SDS011;51027;42.162;24.754;2023-02-24T06:24:36;20.85;;;6.07;;
64615;SDS011;51027;42.162;24.754;2023-02-24T06:27:03;23.88;;;6.20;;
64615;SDS011;51027;42.162;24.754;2023-02-24T06:29:35;20.58;;;6.47;;
64615;SDS011;51027;42.162;24.754;2023-02-24T06:32:02;22.48;;;6.05;;
64615;SDS011;51027;42.162;24.754;2023-02-24T06:34:35;18.33;;;5.70;;
64615;SDS011;51027;42.162;24.754;2023-02-24T06:37:02;23.05;;;5.47;;
64615;SDS011;51027;42.162;24.754;2023-02-24T06:39:29;21.58;;;5.10;;
64615;SDS011;51027;42.162;24.754;2023-02-24T06:41:56;18.75;;;5.28;;
64615;SDS011;51027;42.162;24.754;2023-02-24T06:44:28;17.50;;;6.07;;
64615;SDS011;51027;42.162;24.754;2023-02-24T06:46:54;17.67;;;4.95;;
64615;SDS011;51027;42.162;24.754;2023-02-24T06:49:20;19.83;;;6.13;;
64615;SDS011;51027;42.162;24.754;2023-02-24T06:51:46;20.63;;;7.10;;
64615;SDS011;51027;42.162;24.754;2023-02-24T06:54:12;21.63;;;6.90;;
64615;SDS011;51027;42.162;24.754;2023-02-24T06:56:39;21.40;;;5.82;;
64615;SDS011;51027;42.162;24.754;2023-02-24T06:59:06;19.95;;;6.43;;
64615;SDS011;51027;42.162;24.754;2023-02-24T07:01:36;19.95;;;5.38;;
64615;SDS011;51027;42.162;24.754;2023-02-24T07:04:09;22.30;;;6.20;;
64615;SDS011;51027;42.162;24.754;2023-02-24T07:06:36;20.75;;;5.97;;
64615;SDS011;51027;42.162;24.754;2023-02-24T07:09:06;24.75;;;5.95;;
64615;SDS011;51027;42.162;24.754;2023-02-24T07:11:33;18.08;;;6.57;;
64615;SDS011;51027;42.162;24.754;2023-02-24T07:14:00;19.13;;;6.38;;
64615;SDS011;51027;42.162;24.754;2023-02-24T07:16:29;23.60;;;6.78;;
64615;SDS011;51027;42.162;24.754;2023-02-24T07:18:59;24.20;;;7.25;;
64615;SDS011;51027;42.162;24.754;2023-02-24T07:21:28;23.60;;;6.82;;
64615;SDS011;51027;42.162;24.754;2023-02-24T07:23:55;21.77;;;6.20;;
64615;SDS011;51027;42.162;24.754;2023-02-24T07:26:24;23.23;;;7.85;;
64615;SDS011;51027;42.162;24.754;2023-02-24T07:28:52;38.00;;;15.55;;
64615;SDS011;51027;42.162;24.754;2023-02-24T07:31:22;27.63;;;8.30;;
64615;SDS011;51027;42.162;24.754;2023-02-24T07:33:52;25.95;;;8.40;;
64615;SDS011;51027;42.162;24.754;2023-02-24T07:36:21;22.70;;;7.72;;
64615;SDS011;51027;42.162;24.754;2023-02-24T07:38:53;28.52;;;9.52;;
64615;SDS011;51027;42.162;24.754;2023-02-24T07:41:22;23.65;;;8.65;;
64615;SDS011;51027;42.162;24.754;2023-02-24T07:43:50;29.92;;;10.60;;
64615;SDS011;51027;42.162;24.754;2023-02-24T07:46:27;28.30;;;9.40;;
64615;SDS011;51027;42.162;24.754;2023-02-24T07:48:53;27.20;;;9.13;;
64615;SDS011;51027;42.162;24.754;2023-02-24T07:51:21;28.67;;;10.55;;
64615;SDS011;51027;42.162;24.754;2023-02-24T07:53:49;26.48;;;8.23;;
64615;SDS011;51027;42.162;24.754;2023-02-24T07:56:17;31.20;;;11.20;;
64615;SDS011;51027;42.162;24.754;2023-02-24T07:58:45;30.42;;;12.95;;
64615;SDS011;51027;42.162;24.754;2023-02-24T08:01:16;36.45;;;14.57;;
64615;SDS011;51027;42.162;24.754;2023-02-24T08:03:49;28.60;;;9.98;;
64615;SDS011;51027;42.162;24.754;2023-02-24T08:06:23;26.80;;;10.13;;
64615;SDS011;51027;42.162;24.754;2023-02-24T08:09:02;31.45;;;9.80;;
64615;SDS011;51027;42.162;24.754;2023-02-24T08:12:01;25.67;;;9.55;;
64615;SDS011;51027;42.162;24.754;2023-02-24T08:14:28;28.48;;;9.73;;
64615;SDS011;51027;42.162;24.754;2023-02-24T08:17:08;26.60;;;9.13;;
64615;SDS011;51027;42.162;24.754;2023-02-24T08:19:35;27.63;;;9.48;;
64615;SDS011;51027;42.162;24.754;2023-02-24T08:22:05;26.85;;;10.32;;
64615;SDS011;51027;42.162;24.754;2023-02-24T08:27:21;31.17;;;11.73;;
64615;SDS011;51027;42.162;24.754;2023-02-24T08:29:49;26.15;;;10.93;;
64615;SDS011;51027;42.162;24.754;2023-02-24T08:32:24;29.77;;;11.80;;
64615;SDS011;51027;42.162;24.754;2023-02-24T08:35:50;38.35;;;12.18;;
64615;SDS011;51027;42.162;24.754;2023-02-24T08:38:01;33.33;;;12.80;;
64615;SDS011;51027;42.162;24.754;2023-02-24T08:40:42;35.55;;;14.13;;
64615;SDS011;51027;42.162;24.754;2023-02-24T08:45:57;30.05;;;12.70;;
64615;SDS011;51027;42.162;24.754;2023-02-24T08:48:33;35.35;;;13.23;;
64615;SDS011;51027;42.162;24.754;2023-02-24T08:54:02;37.20;;;15.73;;
64615;SDS011;51027;42.162;24.754;2023-02-24T08:56:39;36.50;;;14.25;;
64615;SDS011;51027;42.162;24.754;2023-02-24T08:59:13;40.05;;;14.98;;
64615;SDS011;51027;42.162;24.754;2023-02-24T09:02:09;31.30;;;14.27;;
64615;SDS011;51027;42.162;24.754;2023-02-24T09:07:43;39.55;;;15.52;;
64615;SDS011;51027;42.162;24.754;2023-02-24T09:10:04;38.17;;;16.80;;
64615;SDS011;51027;42.162;24.754;2023-02-24T09:12:36;37.47;;;15.20;;
64615;SDS011;51027;42.162;24.754;2023-02-24T09:15:06;32.53;;;13.93;;
64615;SDS011;51027;42.162;24.754;2023-02-24T09:17:33;36.47;;;14.50;;
64615;SDS011;51027;42.162;24.754;2023-02-24T09:20:23;36.58;;;13.13;;
64615;SDS011;51027;42.162;24.754;2023-02-24T09:22:51;39.00;;;14.32;;
64615;SDS011;51027;42.162;24.754;2023-02-24T09:25:22;39.17;;;15.25;;
64615;SDS011;51027;42.162;24.754;2023-02-24T09:35:32;34.63;;;15.65;;
64615;SDS011;51027;42.162;24.754;2023-02-24T09:38:01;35.85;;;14.02;;
64615;SDS011;51027;42.162;24.754;2023-02-24T09:40:33;42.65;;;16.10;;
64615;SDS011;51027;42.162;24.754;2023-02-24T09:43:26;41.97;;;16.10;;
64615;SDS011;51027;42.162;24.754;2023-02-24T09:48:41;36.42;;;15.77;;
64615;SDS011;51027;42.162;24.754;2023-02-24T09:51:15;35.60;;;15.20;;
64615;SDS011;51027;42.162;24.754;2023-02-24T09:53:47;38.55;;;16.00;;
64615;SDS011;51027;42.162;24.754;2023-02-24T09:59:01;39.10;;;19.25;;
64615;SDS011;51027;42.162;24.754;2023-02-24T10:04:28;34.63;;;14.02;;
64615;SDS011;51027;42.162;24.754;2023-02-24T10:07:17;37.90;;;15.18;;
64615;SDS011;51027;42.162;24.754;2023-02-24T10:09:54;36.53;;;15.57;;
64615;SDS011;51027;42.162;24.754;2023-02-24T10:12:43;35.97;;;14.40;;
64615;SDS011;51027;42.162;24.754;2023-02-24T10:15:20;35.17;;;15.90;;
64615;SDS011;51027;42.162;24.754;2023-02-24T10:18:20;38.97;;;15.85;;
64615;SDS011;51027;42.162;24.754;2023-02-24T10:20:55;39.30;;;14.55;;
64615;SDS011;51027;42.162;24.754;2023-02-24T10:23:47;35.25;;;14.95;;
64615;SDS011;51027;42.162;24.754;2023-02-24T10:29:30;33.88;;;15.02;;
64615;SDS011;51027;42.162;24.754;2023-02-24T10:32:06;36.30;;;15.05;;
64615;SDS011;51027;42.162;24.754;2023-02-24T10:34:47;34.90;;;13.35;;
64615;SDS011;51027;42.162;24.754;2023-02-24T10:37:16;32.78;;;14.65;;
64615;SDS011;51027;42.162;24.754;2023-02-24T10:39:47;30.00;;;14.00;;
64615;SDS011;51027;42.162;24.754;2023-02-24T10:42:30;32.25;;;14.20;;
64615;SDS011;51027;42.162;24.754;2023-02-24T10:45:09;34.05;;;14.45;;
64615;SDS011;51027;42.162;24.754;2023-02-24T10:47:50;33.40;;;14.40;;
64615;SDS011;51027;42.162;24.754;2023-02-24T10:50:24;35.42;;;14.20;;
64615;SDS011;51027;42.162;24.754;2023-02-24T10:53:00;37.45;;;15.07;;
64615;SDS011;51027;42.162;24.754;2023-02-24T10:58:21;35.97;;;15.32;;
64615;SDS011;51027;42.162;24.754;2023-02-24T11:01:25;36.15;;;15.25;;
64615;SDS011;51027;42.162;24.754;2023-02-24T11:04:19;33.92;;;13.57;;
64615;SDS011;51027;42.162;24.754;2023-02-24T11:07:00;34.08;;;14.70;;
64615;SDS011;51027;42.162;24.754;2023-02-24T11:09:33;38.13;;;15.20;;
64615;SDS011;51027;42.162;24.754;2023-02-24T11:12:23;33.53;;;14.20;;
64615;SDS011;51027;42.162;24.754;2023-02-24T11:15:17;33.60;;;15.65;;
64615;SDS011;51027;42.162;24.754;2023-02-24T11:18:04;39.00;;;14.20;;
64615;SDS011;51027;42.162;24.754;2023-02-24T11:23:22;37.22;;;14.45;;
64615;SDS011;51027;42.162;24.754;2023-02-24T11:25:52;31.02;;;14.02;;
64615;SDS011;51027;42.162;24.754;2023-02-24T11:48:12;32.33;;;13.43;;
64615;SDS011;51027;42.162;24.754;2023-02-24T11:53:24;31.17;;;11.90;;
64615;SDS011;51027;42.162;24.754;2023-02-24T11:55:53;28.17;;;11.32;;
64615;SDS011;51027;42.162;24.754;2023-02-24T11:58:33;33.17;;;12.40;;
64615;SDS011;51027;42.162;24.754;2023-02-24T12:06:26;31.35;;;13.13;;
64615;SDS011;51027;42.162;24.754;2023-02-24T12:08:56;36.10;;;13.30;;
64615;SDS011;51027;42.162;24.754;2023-02-24T12:14:14;32.15;;;14.18;;
64615;SDS011;51027;42.162;24.754;2023-02-24T12:16:53;33.08;;;15.38;;
64615;SDS011;51027;42.162;24.754;2023-02-24T12:19:30;28.67;;;12.85;;
64615;SDS011;51027;42.162;24.754;2023-02-24T12:22:12;35.67;;;12.32;;
64615;SDS011;51027;42.162;24.754;2023-02-24T12:24:40;30.55;;;13.20;;
64615;SDS011;51027;42.162;24.754;2023-02-24T12:27:15;29.05;;;11.40;;
64615;SDS011;51027;42.162;24.754;2023-02-24T12:30:11;30.17;;;11.23;;
64615;SDS011;51027;42.162;24.754;2023-02-24T12:35:52;33.35;;;13.38;;
64615;SDS011;51027;42.162;24.754;2023-02-24T12:53:11;29.90;;;13.02;;
64615;SDS011;51027;42.162;24.754;2023-02-24T12:55:40;27.45;;;13.10;;
64615;SDS011;51027;42.162;24.754;2023-02-24T13:00:53;24.23;;;11.77;;
64615;SDS011;51027;42.162;24.754;2023-02-24T13:12:03;27.85;;;12.23;;
64615;SDS011;51027;42.162;24.754;2023-02-24T13:14:38;29.02;;;13.23;;
64615;SDS011;51027;42.162;24.754;2023-02-24T13:19:33;27.65;;;11.90;;
64615;SDS011;51027;42.162;24.754;2023-02-24T13:22:18;27.60;;;13.35;;
64615;SDS011;51027;42.162;24.754;2023-02-24T13:27:22;27.88;;;12.85;;
64615;SDS011;51027;42.162;24.754;2023-02-24T13:29:57;28.38;;;12.77;;
64615;SDS011;51027;42.162;24.754;2023-02-24T13:32:32;28.42;;;13.45;;
64615;SDS011;51027;42.162;24.754;2023-02-24T13:35:00;27.15;;;13.15;;
64615;SDS011;51027;42.162;24.754;2023-02-24T13:37:34;34.30;;;13.35;;
64615;SDS011;51027;42.162;24.754;2023-02-24T13:42:42;30.58;;;13.85;;
64615;SDS011;51027;42.162;24.754;2023-02-24T13:45:19;30.60;;;13.63;;
64615;SDS011;51027;42.162;24.754;2023-02-24T14:01:50;26.67;;;13.35;;
64615;SDS011;51027;42.162;24.754;2023-02-24T14:04:23;31.17;;;14.48;;
64615;SDS011;51027;42.162;24.754;2023-02-24T14:06:55;30.98;;;15.10;;
64615;SDS011;51027;42.162;24.754;2023-02-24T14:09:33;32.30;;;13.70;;
64615;SDS011;51027;42.162;24.754;2023-02-24T14:12:04;28.90;;;13.98;;
64615;SDS011;51027;42.162;24.754;2023-02-24T14:14:37;29.58;;;13.73;;
64615;SDS011;51027;42.162;24.754;2023-02-24T14:17:03;33.03;;;14.90;;
64615;SDS011;51027;42.162;24.754;2023-02-24T14:19:28;30.52;;;14.52;;
64615;SDS011;51027;42.162;24.754;2023-02-24T14:21:54;31.48;;;14.90;;
64615;SDS011;51027;42.162;24.754;2023-02-24T14:24:22;31.38;;;13.57;;
64615;SDS011;51027;42.162;24.754;2023-02-24T14:26:52;31.25;;;15.55;;
64615;SDS011;51027;42.162;24.754;2023-02-24T14:29:22;30.70;;;15.45;;
64615;SDS011;51027;42.162;24.754;2023-02-24T14:31:58;31.42;;;15.38;;
64615;SDS011;51027;42.162;24.754;2023-02-24T14:34:24;31.77;;;14.27;;
64615;SDS011;51027;42.162;24.754;2023-02-24T14:36:53;30.52;;;14.10;;
64615;SDS011;51027;42.162;24.754;2023-02-24T14:39:22;31.20;;;15.40;;
64615;SDS011;51027;42.162;24.754;2023-02-24T14:44:42;27.08;;;13.63;;
64615;SDS011;51027;42.162;24.754;2023-02-24T14:47:10;27.48;;;13.10;;
64615;SDS011;51027;42.162;24.754;2023-02-24T14:49:38;30.15;;;13.98;;
64615;SDS011;51027;42.162;24.754;2023-02-24T14:52:05;32.42;;;15.02;;
64615;SDS011;51027;42.162;24.754;2023-02-24T14:54:44;34.17;;;14.20;;
64615;SDS011;51027;42.162;24.754;2023-02-24T14:57:23;28.58;;;14.30;;
64615;SDS011;51027;42.162;24.754;2023-02-24T14:59:57;29.08;;;13.30;;
64615;SDS011;51027;42.162;24.754;2023-02-24T15:02:35;31.48;;;14.15;;
64615;SDS011;51027;42.162;24.754;2023-02-24T15:07:32;30.33;;;14.30;;
64615;SDS011;51027;42.162;24.754;2023-02-24T15:09:59;30.15;;;13.63;;
64615;SDS011;51027;42.162;24.754;2023-02-24T15:12:32;32.80;;;16.15;;
64615;SDS011;51027;42.162;24.754;2023-02-24T15:15:03;32.15;;;14.95;;
64615;SDS011;51027;42.162;24.754;2023-02-24T15:17:36;29.30;;;13.95;;
64615;SDS011;51027;42.162;24.754;2023-02-24T15:20:23;32.45;;;15.63;;
64615;SDS011;51027;42.162;24.754;2023-02-24T15:22:48;29.08;;;14.63;;
64615;SDS011;51027;42.162;24.754;2023-02-24T15:28:40;32.17;;;15.32;;
64615;SDS011;51027;42.162;24.754;2023-02-24T15:31:00;31.95;;;14.88;;
64615;SDS011;51027;42.162;24.754;2023-02-24T15:33:28;31.23;;;13.60;;
64615;SDS011;51027;42.162;24.754;2023-02-24T15:35:58;30.95;;;15.20;;
64615;SDS011;51027;42.162;24.754;2023-02-24T15:38:28;34.03;;;16.20;;
64615;SDS011;51027;42.162;24.754;2023-02-24T15:40:57;33.22;;;16.48;;
64615;SDS011;51027;42.162;24.754;2023-02-24T15:43:32;32.30;;;16.38;;
64615;SDS011;51027;42.162;24.754;2023-02-24T15:46:11;32.20;;;15.60;;
64615;SDS011;51027;42.162;24.754;2023-02-24T15:48:42;33.22;;;15.68;;
64615;SDS011;51027;42.162;24.754;2023-02-24T15:51:13;34.55;;;15.70;;
64615;SDS011;51027;42.162;24.754;2023-02-24T15:53:45;36.63;;;17.30;;
64615;SDS011;51027;42.162;24.754;2023-02-24T15:56:11;39.25;;;18.10;;
64615;SDS011;51027;42.162;24.754;2023-02-24T15:58:36;40.30;;;17.15;;
64615;SDS011;51027;42.162;24.754;2023-02-24T16:01:02;33.92;;;16.08;;
64615;SDS011;51027;42.162;24.754;2023-02-24T16:03:28;32.70;;;16.45;;
64615;SDS011;51027;42.162;24.754;2023-02-24T16:05:53;32.50;;;15.57;;
64615;SDS011;51027;42.162;24.754;2023-02-24T16:08:20;33.60;;;15.13;;
64615;SDS011;51027;42.162;24.754;2023-02-24T16:10:45;33.22;;;15.57;;
64615;SDS011;51027;42.162;24.754;2023-02-24T16:13:15;37.47;;;17.52;;
64615;SDS011;51027;42.162;24.754;2023-02-24T16:15:44;36.42;;;18.13;;
64615;SDS011;51027;42.162;24.754;2023-02-24T16:18:11;35.58;;;17.15;;
64615;SDS011;51027;42.162;24.754;2023-02-24T16:20:43;42.95;;;19.30;;
64615;SDS011;51027;42.162;24.754;2023-02-24T16:23:12;36.47;;;16.17;;
64615;SDS011;51027;42.162;24.754;2023-02-24T16:25:39;37.40;;;17.55;;
64615;SDS011;51027;42.162;24.754;2023-02-24T16:28:12;42.17;;;19.70;;
64615;SDS011;51027;42.162;24.754;2023-02-24T16:30:41;40.17;;;17.30;;
64615;SDS011;51027;42.162;24.754;2023-02-24T16:33:09;34.25;;;15.73;;
64615;SDS011;51027;42.162;24.754;2023-02-24T16:35:36;35.95;;;17.83;;
64615;SDS011;51027;42.162;24.754;2023-02-24T16:38:03;39.65;;;17.77;;
64615;SDS011;51027;42.162;24.754;2023-02-24T16:40:30;39.00;;;17.75;;
64615;SDS011;51027;42.162;24.754;2023-02-24T16:43:01;35.33;;;17.00;;
64615;SDS011;51027;42.162;24.754;2023-02-24T16:45:28;40.78;;;18.60;;
64615;SDS011;51027;42.162;24.754;2023-02-24T16:47:55;38.80;;;17.27;;
64615;SDS011;51027;42.162;24.754;2023-02-24T16:50:26;41.45;;;19.10;;
64615;SDS011;51027;42.162;24.754;2023-02-24T16:52:55;33.35;;;15.95;;
64615;SDS011;51027;42.162;24.754;2023-02-24T16:55:21;38.67;;;17.00;;
64615;SDS011;51027;42.162;24.754;2023-02-24T16:57:46;36.50;;;17.23;;
64615;SDS011;51027;42.162;24.754;2023-02-24T17:00:12;38.80;;;16.80;;
64615;SDS011;51027;42.162;24.754;2023-02-24T17:02:40;36.83;;;17.02;;
64615;SDS011;51027;42.162;24.754;2023-02-24T17:05:10;32.15;;;14.57;;
64615;SDS011;51027;42.162;24.754;2023-02-24T17:07:41;38.85;;;17.38;;
64615;SDS011;51027;42.162;24.754;2023-02-24T17:10:06;34.83;;;18.13;;
64615;SDS011;51027;42.162;24.754;2023-02-24T17:12:33;41.47;;;18.45;;
64615;SDS011;51027;42.162;24.754;2023-02-24T17:14:58;35.40;;;15.50;;
64615;SDS011;51027;42.162;24.754;2023-02-24T17:17:24;36.85;;;16.65;;
64615;SDS011;51027;42.162;24.754;2023-02-24T17:19:49;34.47;;;16.05;;
64615;SDS011;51027;42.162;24.754;2023-02-24T17:22:15;35.85;;;16.48;;
64615;SDS011;51027;42.162;24.754;2023-02-24T17:24:46;37.65;;;15.35;;
64615;SDS011;51027;42.162;24.754;2023-02-24T17:27:11;32.40;;;15.60;;
64615;SDS011;51027;42.162;24.754;2023-02-24T17:29:37;39.97;;;17.40;;
64615;SDS011;51027;42.162;24.754;2023-02-24T17:32:02;36.35;;;16.65;;
64615;SDS011;51027;42.162;24.754;2023-02-24T17:34:27;37.00;;;17.45;;
64615;SDS011;51027;42.162;24.754;2023-02-24T17:36:53;37.30;;;16.92;;
64615;SDS011;51027;42.162;24.754;2023-02-24T17:39:19;38.20;;;18.58;;
64615;SDS011;51027;42.162;24.754;2023-02-24T17:41:44;33.97;;;17.05;;
64615;SDS011;51027;42.162;24.754;2023-02-24T17:44:10;40.42;;;18.13;;
64615;SDS011;51027;42.162;24.754;2023-02-24T17:46:35;40.60;;;17.58;;